Springfield-Branson National Airport Airport (SGF)

 

Airport Diagram
Current Weather/Forecast (IFR Conditions)
METAR KSGF 281952Z 32018G22KT 4SM -RA BR BKN009 OVC016 09/08 A2943 RMK AO2 PK WND 33027/1914 CIG 006V013 SLP965 P0002 T00890078
TAF KSGF 281725Z 2818/2918 32016G22KT 6SM -RA BR BKN010 BKN015 OVC022 FM282100 33021G32KT 3SM -SHRA BR OVC008 FM290300 33022G34KT 5SM -SHRA BR OVC005 FM290400 33020G30KT 6SM -SHRA BR OVC005 FM291600 33017G29KT 5SM BR OVC007 PROB30 2916/2918 2SM -SHRA BR OVC001

All Charts
General
Chart Name Download
AIRPORT DIAGRAM
TAKEOFF MINIMUMS
ALTERNATE MINIMUMS
HOT SPOT

Approaches
Chart Name Download
ILS OR LOC RWY 02
ILS OR LOC RWY 14
RNAV (GPS) RWY 02
RNAV (GPS) RWY 14
RNAV (GPS) RWY 20
RNAV (GPS) RWY 32
VOR/DME OR TACAN RWY 02
VOR OR TACAN RWY 20
HI-TACAN RWY 20